Springdale, Connecticut
Current Conditions -  °F | °C
As of 9:56 PM on Thursday 18 Dec 2014 (Local Time) from KHPN Reporting Station
Clear Clear  
Wind Chill: 26°   Ceiling: Unl
Heat Index: 35°   Visibility: 10mi
Dew Point: 26°   Wind: 13mph
Humidity: 70%   Direction: 300°WNW
Pressure: 29.93"   Gusts: NA
Location:  41.1005°N, 73.521°W
Report Text: KHPN 190256Z 30011KT 10SM CLR 02/M03 A2993 RMK AO2 SLP142 T00171033 53001
Loading
Personal Weather Stations






























Interactive Weather Map New forecast layout! Learn more

10-Day Weather Forecast

Advertisements
Track Severe Weather on mobile